sensor_id;sensor_type;location;lat;lon;timestamp;P1;durP1;ratioP1;P2;durP2;ratioP2
76786;SDS011;65739;51.482;5.702;2023-02-14T00:00:49;39.15;;;17.88;;
76786;SDS011;65739;51.482;5.702;2023-02-14T00:13:34;36.47;;;17.88;;
76786;SDS011;65739;51.482;5.702;2023-02-14T00:15:59;32.70;;;17.00;;
76786;SDS011;65739;51.482;5.702;2023-02-14T00:18:31;39.50;;;18.27;;
76786;SDS011;65739;51.482;5.702;2023-02-14T00:25:00;34.22;;;17.50;;
76786;SDS011;65739;51.482;5.702;2023-02-14T00:27:54;36.40;;;17.65;;
76786;SDS011;65739;51.482;5.702;2023-02-14T00:30:18;33.72;;;17.55;;
76786;SDS011;65739;51.482;5.702;2023-02-14T00:47:12;33.22;;;16.63;;
76786;SDS011;65739;51.482;5.702;2023-02-14T01:17:16;36.10;;;16.17;;
76786;SDS011;65739;51.482;5.702;2023-02-14T01:20:30;37.08;;;17.20;;
76786;SDS011;65739;51.482;5.702;2023-02-14T01:22:56;33.97;;;15.80;;
76786;SDS011;65739;51.482;5.702;2023-02-14T01:25:49;32.80;;;16.65;;
76786;SDS011;65739;51.482;5.702;2023-02-14T01:29:08;36.65;;;16.77;;
76786;SDS011;65739;51.482;5.702;2023-02-14T01:55:02;35.72;;;16.63;;
76786;SDS011;65739;51.482;5.702;2023-02-14T01:58:00;37.10;;;17.80;;
76786;SDS011;65739;51.482;5.702;2023-02-14T02:11:03;39.53;;;16.83;;
76786;SDS011;65739;51.482;5.702;2023-02-14T02:13:50;32.05;;;16.25;;
76786;SDS011;65739;51.482;5.702;2023-02-14T02:17:25;30.02;;;15.73;;
76786;SDS011;65739;51.482;5.702;2023-02-14T02:33:06;36.80;;;17.20;;
76786;SDS011;65739;51.482;5.702;2023-02-14T02:56:52;36.67;;;16.90;;
76786;SDS011;65739;51.482;5.702;2023-02-14T03:06:30;32.83;;;16.98;;
76786;SDS011;65739;51.482;5.702;2023-02-14T03:17:05;34.78;;;16.83;;
76786;SDS011;65739;51.482;5.702;2023-02-14T03:30:39;37.47;;;16.08;;
76786;SDS011;65739;51.482;5.702;2023-02-14T03:43:03;32.78;;;17.35;;
76786;SDS011;65739;51.482;5.702;2023-02-14T03:55:32;33.50;;;16.33;;
76786;SDS011;65739;51.482;5.702;2023-02-14T03:58:45;40.33;;;17.88;;
76786;SDS011;65739;51.482;5.702;2023-02-14T04:04:55;33.40;;;16.75;;
76786;SDS011;65739;51.482;5.702;2023-02-14T04:07:31;33.90;;;16.35;;
76786;SDS011;65739;51.482;5.702;2023-02-14T04:10:47;33.22;;;16.23;;
76786;SDS011;65739;51.482;5.702;2023-02-14T04:13:17;31.98;;;17.13;;
76786;SDS011;65739;51.482;5.702;2023-02-14T04:20:00;32.45;;;17.00;;
76786;SDS011;65739;51.482;5.702;2023-02-14T05:11:53;33.20;;;14.80;;
76786;SDS011;65739;51.482;5.702;2023-02-14T05:24:31;31.00;;;14.50;;
76786;SDS011;65739;51.482;5.702;2023-02-14T05:27:00;31.50;;;14.90;;
76786;SDS011;65739;51.482;5.702;2023-02-14T05:29:38;33.55;;;15.15;;
76786;SDS011;65739;51.482;5.702;2023-02-14T05:32:46;32.50;;;14.38;;
76786;SDS011;65739;51.482;5.702;2023-02-14T05:35:51;30.02;;;14.52;;
76786;SDS011;65739;51.482;5.702;2023-02-14T05:42:30;26.85;;;14.10;;
76786;SDS011;65739;51.482;5.702;2023-02-14T05:48:43;30.60;;;14.40;;
76786;SDS011;65739;51.482;5.702;2023-02-14T05:52:16;28.95;;;14.27;;
76786;SDS011;65739;51.482;5.702;2023-02-14T05:55:04;29.75;;;16.05;;
76786;SDS011;65739;51.482;5.702;2023-02-14T06:07:37;31.13;;;15.52;;
76786;SDS011;65739;51.482;5.702;2023-02-14T06:10:33;32.53;;;17.30;;
76786;SDS011;65739;51.482;5.702;2023-02-14T06:13:47;29.02;;;16.40;;
76786;SDS011;65739;51.482;5.702;2023-02-14T06:16:15;30.58;;;16.20;;
76786;SDS011;65739;51.482;5.702;2023-02-14T06:21:49;31.40;;;16.58;;
76786;SDS011;65739;51.482;5.702;2023-02-14T06:24:17;31.95;;;15.68;;
76786;SDS011;65739;51.482;5.702;2023-02-14T06:26:52;30.65;;;15.07;;
76786;SDS011;65739;51.482;5.702;2023-02-14T06:29:34;30.77;;;15.43;;
76786;SDS011;65739;51.482;5.702;2023-02-14T06:32:00;33.83;;;15.88;;
76786;SDS011;65739;51.482;5.702;2023-02-14T06:34:29;29.75;;;15.25;;
76786;SDS011;65739;51.482;5.702;2023-02-14T06:40:09;28.90;;;13.88;;
76786;SDS011;65739;51.482;5.702;2023-02-14T06:55:30;29.08;;;13.95;;
76786;SDS011;65739;51.482;5.702;2023-02-14T06:57:56;29.02;;;14.75;;
76786;SDS011;65739;51.482;5.702;2023-02-14T07:03:08;30.08;;;14.25;;
76786;SDS011;65739;51.482;5.702;2023-02-14T09:54:25;23.90;;;12.77;;
76786;SDS011;65739;51.482;5.702;2023-02-14T10:06:55;19.15;;;11.55;;
76786;SDS011;65739;51.482;5.702;2023-02-14T10:16:40;17.63;;;11.93;;
76786;SDS011;65739;51.482;5.702;2023-02-14T10:29:23;15.18;;;10.15;;
76786;SDS011;65739;51.482;5.702;2023-02-14T10:32:48;15.70;;;10.82;;
76786;SDS011;65739;51.482;5.702;2023-02-14T10:58:25;17.40;;;11.68;;
76786;SDS011;65739;51.482;5.702;2023-02-14T11:01:29;15.60;;;11.15;;
76786;SDS011;65739;51.482;5.702;2023-02-14T11:04:04;17.73;;;12.13;;
76786;SDS011;65739;51.482;5.702;2023-02-14T11:06:35;20.45;;;12.30;;
76786;SDS011;65739;51.482;5.702;2023-02-14T11:09:11;20.77;;;11.82;;
76786;SDS011;65739;51.482;5.702;2023-02-14T11:11:57;19.02;;;11.55;;
76786;SDS011;65739;51.482;5.702;2023-02-14T11:20:37;18.58;;;11.93;;
76786;SDS011;65739;51.482;5.702;2023-02-14T11:25:58;22.55;;;12.75;;
76786;SDS011;65739;51.482;5.702;2023-02-14T11:28:48;17.33;;;11.07;;
76786;SDS011;65739;51.482;5.702;2023-02-14T11:31:25;17.52;;;11.45;;
76786;SDS011;65739;51.482;5.702;2023-02-14T11:33:53;21.98;;;12.05;;
76786;SDS011;65739;51.482;5.702;2023-02-14T11:36:20;20.05;;;12.05;;
76786;SDS011;65739;51.482;5.702;2023-02-14T11:41:59;20.48;;;11.80;;
76786;SDS011;65739;51.482;5.702;2023-02-14T11:47:15;17.98;;;12.00;;
76786;SDS011;65739;51.482;5.702;2023-02-14T11:49:57;22.13;;;13.05;;
76786;SDS011;65739;51.482;5.702;2023-02-14T11:52:34;19.48;;;11.57;;
76786;SDS011;65739;51.482;5.702;2023-02-14T11:55:21;23.27;;;12.10;;
76786;SDS011;65739;51.482;5.702;2023-02-14T11:57:50;18.25;;;12.45;;
76786;SDS011;65739;51.482;5.702;2023-02-14T12:00:17;20.30;;;12.15;;
76786;SDS011;65739;51.482;5.702;2023-02-14T12:02:51;18.88;;;11.80;;
76786;SDS011;65739;51.482;5.702;2023-02-14T12:05:19;18.92;;;11.77;;
76786;SDS011;65739;51.482;5.702;2023-02-14T12:08:05;20.95;;;12.77;;
76786;SDS011;65739;51.482;5.702;2023-02-14T12:10:35;17.48;;;12.20;;
76786;SDS011;65739;51.482;5.702;2023-02-14T12:15:39;18.48;;;12.82;;
76786;SDS011;65739;51.482;5.702;2023-02-14T12:24:05;21.90;;;12.20;;
76786;SDS011;65739;51.482;5.702;2023-02-14T12:26:42;17.00;;;11.38;;
76786;SDS011;65739;51.482;5.702;2023-02-14T12:29:36;21.55;;;12.13;;
76786;SDS011;65739;51.482;5.702;2023-02-14T12:32:26;17.40;;;12.48;;
76786;SDS011;65739;51.482;5.702;2023-02-14T12:37:46;18.98;;;11.70;;
76786;SDS011;65739;51.482;5.702;2023-02-14T12:51:58;19.63;;;11.73;;
76786;SDS011;65739;51.482;5.702;2023-02-14T13:00:16;19.52;;;11.80;;
76786;SDS011;65739;51.482;5.702;2023-02-14T13:05:43;19.75;;;12.48;;
76786;SDS011;65739;51.482;5.702;2023-02-14T13:13:56;19.42;;;11.77;;
76786;SDS011;65739;51.482;5.702;2023-02-14T13:31:09;23.77;;;12.20;;
76786;SDS011;65739;51.482;5.702;2023-02-14T13:33:37;22.58;;;12.73;;
76786;SDS011;65739;51.482;5.702;2023-02-14T13:36:08;23.75;;;12.80;;
76786;SDS011;65739;51.482;5.702;2023-02-14T13:38:37;26.30;;;12.68;;
76786;SDS011;65739;51.482;5.702;2023-02-14T13:41:08;23.92;;;13.45;;
76786;SDS011;65739;51.482;5.702;2023-02-14T13:43:48;21.25;;;13.07;;
76786;SDS011;65739;51.482;5.702;2023-02-14T13:47:06;23.25;;;12.75;;
76786;SDS011;65739;51.482;5.702;2023-02-14T13:51:46;22.83;;;13.43;;
76786;SDS011;65739;51.482;5.702;2023-02-14T13:56:58;24.65;;;13.82;;
76786;SDS011;65739;51.482;5.702;2023-02-14T13:59:33;27.70;;;14.68;;
76786;SDS011;65739;51.482;5.702;2023-02-14T14:04:54;23.80;;;14.25;;
76786;SDS011;65739;51.482;5.702;2023-02-14T14:07:27;27.92;;;14.25;;
76786;SDS011;65739;51.482;5.702;2023-02-14T14:09:57;23.23;;;13.88;;
76786;SDS011;65739;51.482;5.702;2023-02-14T14:17:33;26.40;;;14.05;;
76786;SDS011;65739;51.482;5.702;2023-02-14T14:22:55;25.05;;;13.85;;
76786;SDS011;65739;51.482;5.702;2023-02-14T14:25:32;28.65;;;14.65;;
76786;SDS011;65739;51.482;5.702;2023-02-14T14:28:09;25.45;;;13.85;;
76786;SDS011;65739;51.482;5.702;2023-02-14T14:30:48;28.95;;;14.77;;
76786;SDS011;65739;51.482;5.702;2023-02-14T14:35:59;29.67;;;14.88;;
76786;SDS011;65739;51.482;5.702;2023-02-14T14:38:27;24.02;;;14.65;;
76786;SDS011;65739;51.482;5.702;2023-02-14T14:40:54;30.35;;;15.05;;
76786;SDS011;65739;51.482;5.702;2023-02-14T14:43:28;27.92;;;14.15;;
76786;SDS011;65739;51.482;5.702;2023-02-14T14:45:55;31.45;;;14.73;;
76786;SDS011;65739;51.482;5.702;2023-02-14T14:51:07;33.55;;;14.65;;
76786;SDS011;65739;51.482;5.702;2023-02-14T14:53:50;29.13;;;13.95;;
76786;SDS011;65739;51.482;5.702;2023-02-14T14:56:20;28.10;;;14.20;;
76786;SDS011;65739;51.482;5.702;2023-02-14T14:58:48;26.80;;;13.68;;
76786;SDS011;65739;51.482;5.702;2023-02-14T15:01:30;31.67;;;14.75;;
76786;SDS011;65739;51.482;5.702;2023-02-14T15:04:10;26.75;;;13.63;;
76786;SDS011;65739;51.482;5.702;2023-02-14T15:06:44;29.60;;;14.52;;
76786;SDS011;65739;51.482;5.702;2023-02-14T15:09:15;25.83;;;14.13;;
76786;SDS011;65739;51.482;5.702;2023-02-14T15:11:46;27.77;;;14.10;;
76786;SDS011;65739;51.482;5.702;2023-02-14T15:14:33;29.85;;;14.73;;
76786;SDS011;65739;51.482;5.702;2023-02-14T15:17:05;31.55;;;14.52;;
76786;SDS011;65739;51.482;5.702;2023-02-14T15:19:40;28.15;;;14.48;;
76786;SDS011;65739;51.482;5.702;2023-02-14T15:22:21;30.90;;;15.07;;
76786;SDS011;65739;51.482;5.702;2023-02-14T15:24:50;25.85;;;14.27;;
76786;SDS011;65739;51.482;5.702;2023-02-14T15:27:19;32.00;;;15.23;;
76786;SDS011;65739;51.482;5.702;2023-02-14T15:32:19;27.90;;;13.60;;
76786;SDS011;65739;51.482;5.702;2023-02-14T15:34:45;26.58;;;13.90;;
76786;SDS011;65739;51.482;5.702;2023-02-14T15:37:12;33.50;;;15.73;;
76786;SDS011;65739;51.482;5.702;2023-02-14T15:39:42;28.95;;;14.75;;
76786;SDS011;65739;51.482;5.702;2023-02-14T15:42:27;30.35;;;14.95;;
76786;SDS011;65739;51.482;5.702;2023-02-14T15:48:31;28.25;;;15.40;;
76786;SDS011;65739;51.482;5.702;2023-02-14T15:50:58;30.15;;;15.45;;
76786;SDS011;65739;51.482;5.702;2023-02-14T15:56:19;29.38;;;14.63;;
76786;SDS011;65739;51.482;5.702;2023-02-14T15:59:19;29.40;;;15.55;;
76786;SDS011;65739;51.482;5.702;2023-02-14T16:01:50;26.08;;;14.05;;
76786;SDS011;65739;51.482;5.702;2023-02-14T16:04:23;26.80;;;13.23;;
76786;SDS011;65739;51.482;5.702;2023-02-14T16:07:04;26.60;;;13.70;;
76786;SDS011;65739;51.482;5.702;2023-02-14T16:09:45;27.33;;;14.05;;
76786;SDS011;65739;51.482;5.702;2023-02-14T16:12:30;25.48;;;13.70;;
76786;SDS011;65739;51.482;5.702;2023-02-14T16:15:18;24.98;;;14.00;;
76786;SDS011;65739;51.482;5.702;2023-02-14T16:17:48;21.73;;;13.10;;
76786;SDS011;65739;51.482;5.702;2023-02-14T16:23:14;26.63;;;13.90;;
76786;SDS011;65739;51.482;5.702;2023-02-14T16:25:42;24.17;;;13.32;;
76786;SDS011;65739;51.482;5.702;2023-02-14T16:28:09;27.10;;;13.73;;
76786;SDS011;65739;51.482;5.702;2023-02-14T16:30:35;24.67;;;13.40;;
76786;SDS011;65739;51.482;5.702;2023-02-14T16:33:02;30.45;;;15.05;;
76786;SDS011;65739;51.482;5.702;2023-02-14T16:35:30;28.48;;;14.57;;
76786;SDS011;65739;51.482;5.702;2023-02-14T16:37:59;30.58;;;14.90;;
76786;SDS011;65739;51.482;5.702;2023-02-14T16:40:26;29.70;;;15.07;;
76786;SDS011;65739;51.482;5.702;2023-02-14T16:42:52;29.60;;;14.65;;
76786;SDS011;65739;51.482;5.702;2023-02-14T16:45:19;26.63;;;14.38;;
76786;SDS011;65739;51.482;5.702;2023-02-14T16:47:45;28.02;;;13.65;;
76786;SDS011;65739;51.482;5.702;2023-02-14T16:50:14;30.30;;;16.00;;
76786;SDS011;65739;51.482;5.702;2023-02-14T16:52:50;27.92;;;15.20;;
76786;SDS011;65739;51.482;5.702;2023-02-14T16:55:23;29.88;;;14.48;;
76786;SDS011;65739;51.482;5.702;2023-02-14T16:57:55;32.53;;;15.43;;
76786;SDS011;65739;51.482;5.702;2023-02-14T17:00:26;29.90;;;14.75;;
76786;SDS011;65739;51.482;5.702;2023-02-14T17:03:11;29.52;;;14.93;;
76786;SDS011;65739;51.482;5.702;2023-02-14T17:05:37;32.42;;;15.90;;
76786;SDS011;65739;51.482;5.702;2023-02-14T17:08:04;33.53;;;15.02;;
76786;SDS011;65739;51.482;5.702;2023-02-14T17:13:57;33.13;;;16.38;;
76786;SDS011;65739;51.482;5.702;2023-02-14T17:16:24;33.45;;;16.05;;
76786;SDS011;65739;51.482;5.702;2023-02-14T17:18:53;29.75;;;15.38;;
76786;SDS011;65739;51.482;5.702;2023-02-14T17:24:20;33.55;;;15.63;;
76786;SDS011;65739;51.482;5.702;2023-02-14T17:26:46;31.75;;;15.15;;
76786;SDS011;65739;51.482;5.702;2023-02-14T17:29:12;32.47;;;15.95;;
76786;SDS011;65739;51.482;5.702;2023-02-14T17:31:40;43.72;;;18.58;;
76786;SDS011;65739;51.482;5.702;2023-02-14T17:34:05;38.45;;;17.35;;
76786;SDS011;65739;51.482;5.702;2023-02-14T17:36:33;34.90;;;17.40;;
76786;SDS011;65739;51.482;5.702;2023-02-14T17:39:01;38.13;;;17.75;;
76786;SDS011;65739;51.482;5.702;2023-02-14T17:41:30;31.00;;;16.42;;
76786;SDS011;65739;51.482;5.702;2023-02-14T17:43:56;41.05;;;18.15;;
76786;SDS011;65739;51.482;5.702;2023-02-14T17:46:27;35.58;;;16.88;;
76786;SDS011;65739;51.482;5.702;2023-02-14T17:48:54;34.03;;;17.58;;
76786;SDS011;65739;51.482;5.702;2023-02-14T17:51:30;35.20;;;16.42;;
76786;SDS011;65739;51.482;5.702;2023-02-14T17:53:58;38.75;;;16.45;;
76786;SDS011;65739;51.482;5.702;2023-02-14T17:56:31;36.88;;;16.02;;
76786;SDS011;65739;51.482;5.702;2023-02-14T17:59:01;31.25;;;16.48;;
76786;SDS011;65739;51.482;5.702;2023-02-14T18:04:59;33.50;;;16.95;;
76786;SDS011;65739;51.482;5.702;2023-02-14T18:08:05;32.22;;;15.95;;
76786;SDS011;65739;51.482;5.702;2023-02-14T18:13:48;29.60;;;16.10;;
76786;SDS011;65739;51.482;5.702;2023-02-14T18:16:53;33.70;;;17.00;;
76786;SDS011;65739;51.482;5.702;2023-02-14T18:19:23;34.95;;;15.60;;
76786;SDS011;65739;51.482;5.702;2023-02-14T18:21:52;30.80;;;16.38;;
76786;SDS011;65739;51.482;5.702;2023-02-14T18:24:17;35.47;;;16.17;;
76786;SDS011;65739;51.482;5.702;2023-02-14T18:26:44;33.42;;;16.65;;
76786;SDS011;65739;51.482;5.702;2023-02-14T18:29:19;41.55;;;21.90;;
76786;SDS011;65739;51.482;5.702;2023-02-14T18:31:50;42.58;;;20.30;;
76786;SDS011;65739;51.482;5.702;2023-02-14T18:36:50;42.50;;;19.02;;
76786;SDS011;65739;51.482;5.702;2023-02-14T18:39:21;35.33;;;18.88;;
76786;SDS011;65739;51.482;5.702;2023-02-14T18:41:47;38.28;;;19.48;;
76786;SDS011;65739;51.482;5.702;2023-02-14T18:44:15;36.90;;;17.83;;
76786;SDS011;65739;51.482;5.702;2023-02-14T18:46:41;32.47;;;17.33;;
76786;SDS011;65739;51.482;5.702;2023-02-14T18:49:06;34.10;;;17.27;;
76786;SDS011;65739;51.482;5.702;2023-02-14T18:51:34;32.97;;;16.48;;
76786;SDS011;65739;51.482;5.702;2023-02-14T18:54:01;34.33;;;17.23;;
76786;SDS011;65739;51.482;5.702;2023-02-14T18:56:32;33.90;;;16.38;;
76786;SDS011;65739;51.482;5.702;2023-02-14T18:59:03;32.63;;;17.15;;
76786;SDS011;65739;51.482;5.702;2023-02-14T19:01:33;33.97;;;17.20;;
76786;SDS011;65739;51.482;5.702;2023-02-14T19:04:01;29.30;;;15.68;;
76786;SDS011;65739;51.482;5.702;2023-02-14T19:06:28;32.88;;;16.17;;
76786;SDS011;65739;51.482;5.702;2023-02-14T19:09:16;33.05;;;16.77;;
76786;SDS011;65739;51.482;5.702;2023-02-14T19:11:54;31.50;;;16.55;;
76786;SDS011;65739;51.482;5.702;2023-02-14T19:14:24;34.95;;;16.60;;
76786;SDS011;65739;51.482;5.702;2023-02-14T19:16:49;33.85;;;16.60;;
76786;SDS011;65739;51.482;5.702;2023-02-14T19:19:18;29.88;;;16.90;;
76786;SDS011;65739;51.482;5.702;2023-02-14T19:21:44;32.72;;;16.95;;
76786;SDS011;65739;51.482;5.702;2023-02-14T19:24:10;34.25;;;17.20;;
76786;SDS011;65739;51.482;5.702;2023-02-14T19:26:37;34.72;;;17.27;;
76786;SDS011;65739;51.482;5.702;2023-02-14T19:29:11;32.03;;;16.33;;
76786;SDS011;65739;51.482;5.702;2023-02-14T19:31:42;32.35;;;17.02;;
76786;SDS011;65739;51.482;5.702;2023-02-14T19:34:17;34.70;;;17.02;;
76786;SDS011;65739;51.482;5.702;2023-02-14T19:36:46;30.45;;;15.90;;
76786;SDS011;65739;51.482;5.702;2023-02-14T19:41:53;39.17;;;17.83;;
76786;SDS011;65739;51.482;5.702;2023-02-14T19:44:19;38.08;;;17.58;;
76786;SDS011;65739;51.482;5.702;2023-02-14T19:46:45;38.78;;;17.98;;
76786;SDS011;65739;51.482;5.702;2023-02-14T19:49:13;32.80;;;17.92;;
76786;SDS011;65739;51.482;5.702;2023-02-14T19:51:44;33.88;;;18.17;;
76786;SDS011;65739;51.482;5.702;2023-02-14T19:54:15;38.40;;;18.95;;
76786;SDS011;65739;51.482;5.702;2023-02-14T19:56:54;35.63;;;18.65;;
76786;SDS011;65739;51.482;5.702;2023-02-14T19:59:20;43.40;;;18.38;;
76786;SDS011;65739;51.482;5.702;2023-02-14T20:02:05;40.63;;;19.48;;
76786;SDS011;65739;51.482;5.702;2023-02-14T20:04:39;35.15;;;18.73;;
76786;SDS011;65739;51.482;5.702;2023-02-14T20:07:08;37.00;;;18.10;;
76786;SDS011;65739;51.482;5.702;2023-02-14T20:09:34;35.97;;;18.65;;
76786;SDS011;65739;51.482;5.702;2023-02-14T20:12:01;37.75;;;17.98;;
76786;SDS011;65739;51.482;5.702;2023-02-14T20:14:30;34.83;;;17.90;;
76786;SDS011;65739;51.482;5.702;2023-02-14T20:17:00;35.85;;;18.52;;
76786;SDS011;65739;51.482;5.702;2023-02-14T20:19:30;41.33;;;19.02;;
76786;SDS011;65739;51.482;5.702;2023-02-14T20:21:57;33.15;;;17.92;;
76786;SDS011;65739;51.482;5.702;2023-02-14T20:24:25;34.53;;;17.80;;
76786;SDS011;65739;51.482;5.702;2023-02-14T20:27:02;31.83;;;17.20;;
76786;SDS011;65739;51.482;5.702;2023-02-14T20:29:32;32.00;;;17.48;;
76786;SDS011;65739;51.482;5.702;2023-02-14T20:32:02;34.50;;;18.00;;
76786;SDS011;65739;51.482;5.702;2023-02-14T20:34:28;35.17;;;17.88;;
76786;SDS011;65739;51.482;5.702;2023-02-14T20:36:54;30.95;;;17.48;;
76786;SDS011;65739;51.482;5.702;2023-02-14T20:39:25;38.35;;;17.88;;
76786;SDS011;65739;51.482;5.702;2023-02-14T20:41:53;33.28;;;17.80;;
76786;SDS011;65739;51.482;5.702;2023-02-14T20:44:22;31.65;;;17.60;;
76786;SDS011;65739;51.482;5.702;2023-02-14T20:46:53;34.70;;;17.63;;
76786;SDS011;65739;51.482;5.702;2023-02-14T20:49:23;35.20;;;18.05;;
76786;SDS011;65739;51.482;5.702;2023-02-14T20:52:09;34.45;;;18.27;;
76786;SDS011;65739;51.482;5.702;2023-02-14T20:54:42;31.23;;;17.52;;
76786;SDS011;65739;51.482;5.702;2023-02-14T20:57:23;34.63;;;18.52;;
76786;SDS011;65739;51.482;5.702;2023-02-14T21:00:37;33.50;;;17.98;;
76786;SDS011;65739;51.482;5.702;2023-02-14T21:03:13;39.15;;;19.15;;
76786;SDS011;65739;51.482;5.702;2023-02-14T21:05:47;40.40;;;19.02;;
76786;SDS011;65739;51.482;5.702;2023-02-14T21:08:38;37.95;;;19.70;;
76786;SDS011;65739;51.482;5.702;2023-02-14T21:11:08;39.08;;;19.80;;
76786;SDS011;65739;51.482;5.702;2023-02-14T21:14:19;37.97;;;19.38;;
76786;SDS011;65739;51.482;5.702;2023-02-14T21:20:37;35.72;;;19.17;;
76786;SDS011;65739;51.482;5.702;2023-02-14T21:30:29;34.00;;;17.90;;
76786;SDS011;65739;51.482;5.702;2023-02-14T21:33:03;40.22;;;18.38;;
76786;SDS011;65739;51.482;5.702;2023-02-14T21:36:07;35.22;;;18.45;;
76786;SDS011;65739;51.482;5.702;2023-02-14T21:45:46;36.60;;;18.38;;
76786;SDS011;65739;51.482;5.702;2023-02-14T21:48:43;38.20;;;19.33;;
76786;SDS011;65739;51.482;5.702;2023-02-14T21:52:00;41.55;;;19.92;;
76786;SDS011;65739;51.482;5.702;2023-02-14T21:55:10;50.08;;;22.88;;
76786;SDS011;65739;51.482;5.702;2023-02-14T21:58:06;61.60;;;28.63;;
76786;SDS011;65739;51.482;5.702;2023-02-14T22:04:00;70.47;;;33.75;;
76786;SDS011;65739;51.482;5.702;2023-02-14T22:06:54;58.88;;;28.52;;
76786;SDS011;65739;51.482;5.702;2023-02-14T22:09:46;46.63;;;23.23;;
76786;SDS011;65739;51.482;5.702;2023-02-14T22:15:19;45.25;;;20.92;;
76786;SDS011;65739;51.482;5.702;2023-02-14T22:18:06;39.97;;;18.75;;
76786;SDS011;65739;51.482;5.702;2023-02-14T22:21:26;42.40;;;20.48;;
76786;SDS011;65739;51.482;5.702;2023-02-14T22:24:13;50.38;;;20.80;;
76786;SDS011;65739;51.482;5.702;2023-02-14T22:26:55;39.78;;;19.88;;
76786;SDS011;65739;51.482;5.702;2023-02-14T22:29:44;47.72;;;21.50;;
76786;SDS011;65739;51.482;5.702;2023-02-14T22:36:07;40.17;;;19.35;;
76786;SDS011;65739;51.482;5.702;2023-02-14T22:42:34;38.38;;;18.55;;
76786;SDS011;65739;51.482;5.702;2023-02-14T22:53:25;36.58;;;17.30;;
76786;SDS011;65739;51.482;5.702;2023-02-14T23:13:30;35.88;;;17.98;;
76786;SDS011;65739;51.482;5.702;2023-02-14T23:16:17;42.50;;;18.95;;
76786;SDS011;65739;51.482;5.702;2023-02-14T23:26:09;41.95;;;19.45;;
76786;SDS011;65739;51.482;5.702;2023-02-14T23:36:09;35.45;;;19.02;;
76786;SDS011;65739;51.482;5.702;2023-02-14T23:38:38;42.60;;;20.52;;
